Faaborg, Denmark
Current Conditions -  °F | °C
As of 7:50 AM on Friday 28 Nov 2014 (Local Time) from EKSB Reporting Station
Broken Clouds Broken Clouds  
Wind Chill: 29°   Ceiling: 1800
Heat Index: 39°   Visibility: 6mi
Dew Point: 34°   Wind: 23mph
Humidity: 81%   Direction: 110°ESE
Pressure: 30.09"   Gusts: NA
Location:  55.1°N, 10.24°E
Report Text: EKSB 280650Z 11020KT 9999 BKN018 04/01 Q1019
Loading
Personal Weather Stations






























Interactive Weather Map New forecast layout! Learn more

10-Day Weather Forecast

Advertisements
Track Severe Weather on mobile